RLSO2: Arkansas River, Ralston, OK

Data processed at Fri Jan 05 2018 23:20


All information presented herein is the property of the government of the United States of America and may be revised or deleted at any time without prior notice.
Dissemination of this information without the expressed written consent of the Public Affairs Office, Tulsa District U.S. Army Corps of Engineers is strictly prohibited.
These data are gathered electronically and, as presented, have not undergone any form of quality control. These data are not guaranteed to be valid or correct.
Go to home page.
Go to station list.

Upstream stations:

Downstream station:
Previous Day
Next Day
Current Day
    
SHEF ID:       RLSO2     Arkansas River at Ralston, OK
STATION TYPE:  

               PRECIP     STAGE  RIV-FLOW  BAT-LOAD
                   in        ft       cfs      volt
              Ccp-Rev   Ccp-Rev   Ccp-Rev   Ccp-Rev
(US/Central)
01/03 00:00      0.00      3.62       868     12.49
01/03 01:00      0.00      3.56       789     12.49
01/03 02:00      0.00      3.53       752     12.41
01/03 03:00      0.00      3.54       764     12.41
01/03 04:00      0.00      3.50       715     12.41
01/03 05:00      0.00      3.51       727     12.41
01/03 06:00      0.00      3.54       764     12.41
01/03 07:00      0.00      3.54       764     12.41
01/03 08:00      0.00      3.53       752     12.41
01/03 09:00      0.00      3.51       727     12.41
01/03 10:00      0.00      3.53       752     12.73
01/03 11:00      0.00      3.52       740     13.21
01/03 12:00      0.00      3.54       764     14.08
01/03 13:00      0.00      3.57       802     14.16
01/03 14:00      0.00      3.60       841     14.16
01/03 15:00      0.00      3.61       854     14.08
01/03 16:00      0.00      3.62       868     14.00
01/03 17:00      0.00      3.61       854     13.60
01/03 18:00      0.00      3.59       828     13.44
01/03 19:00      0.00      3.58       815     13.05
01/03 20:00      0.00      3.58       815     12.73
01/03 21:00      0.00      3.56       789     12.57
01/03 22:00      0.00      3.54       764     12.57
01/03 23:00      0.00      3.53       752     12.49